Latest Coastal Weather Observations for Groote Eylandt Airport

IDD60701

Issued at 3:21 pm CST Wednesday 18 October 2017 (issued every 10 minutes, with the page automatically refreshed every 10 minutes)

About coastal observations | Map of coastal stations | Coastal observations for NT | Marine services | Other Formats
Station Details ID: 014518 Name: GROOTE EYLANDT AIRPORT Lat: -13.97 Lon: 136.46 Height: 13.7 m
Data from the previous 72 hours. | See also: Recent months at Groote Eylandt Airport
Date/Time
CST
Temp
°C
Wind Pressure Rain since
9am
mm
Weather Cloud Vis
km
Sea
Height
m
Swell
Dir  Spd
kts
Gust
kts
hPa Trend Height
m
Period
s
Dir
18/03:00pm 29.0 S 7 11 1007.3 - 0.0 Showers Cloudy 10 - - - -
18/02:30pm 30.1 ESE 7 12 1007.7 - 0.0 - Partly cloudy 10 - - - -
18/02:00pm 26.8 E 5 9 1008.0 - 0.0 - Partly cloudy 10 - - - -
18/01:30pm 29.2 WNW 8 19 1008.5 - 0.0 - Partly cloudy 10 - - - -
18/01:00pm 31.5 WNW 10 14 1008.1 - 0.0 - Partly cloudy 10 - - - -
18/12:30pm 32.3 NW 11 16 1008.7 - 0.0 - Partly cloudy 10 - - - -
18/12:00pm 31.2 WNW 10 16 1009.2 - 0.0 - Mostly clear 10 - - - -
18/11:30am 32.2 NW 10 14 1009.6 - 0.0 - Partly cloudy 10 - - - -
18/11:00am 31.2 WNW 9 13 1009.9 - 0.0 - Partly cloudy 10 - - - -
18/10:30am 30.6 WNW 9 11 1010.2 - 0.0 - Partly cloudy 10 - - - -
18/10:00am 30.5 N 3 5 1010.6 - 0.0 - Partly cloudy 10 - - - -
18/09:30am 30.6 WNW 5 8 1010.7 - 0.0 - Partly cloudy 10 - - - -
18/09:00am 29.9 NNE 4 6 1010.8 - 0.0 - Mostly clear 10 - - - -
18/08:30am 29.5 NNW 3 6 1010.9 - 0.0 - Partly cloudy 10 - - - -
18/08:00am 28.2 NNE 5 6 1010.7 - 0.0 - - 10 - - - -
18/07:30am 27.3 ESE 3 4 1010.3 - 0.0 - - 10 - - - -
18/07:00am 24.6 E 4 5 1009.8 - 0.0 - - 10 - - - -
18/06:30am 22.6 ESE 3 5 1009.4 - 0.0 - - 10 - - - -
18/06:00am 22.6 CALM 0 0 1009.1 - 0.0 - - 10 - - - -
18/05:30am 22.6 CALM 0 0 1008.7 - 0.0 - - 10 - - - -
18/05:00am 22.5 CALM 0 0 1008.2 - 0.0 - - 10 - - - -
18/04:30am 22.6 E 3 4 1007.9 - 0.0 - - 10 - - - -
18/04:00am 23.2 E 4 4 1007.5 - 0.0 - - 10 - - - -
18/03:30am 23.3 E 3 4 1007.4 - 0.0 - - 10 - - - -
18/03:00am 24.0 ESE 3 4 1007.4 - 0.0 - Mostly clear 10 - - - -
18/02:30am 24.2 E 1 3 1007.6 - 0.0 - - 10 - - - -
18/02:00am 25.0 NE 3 3 1007.6 - 0.0 - - 10 - - - -
18/01:30am 26.2 NNE 3 4 1007.9 - 0.0 - - 10 - - - -
18/01:00am 26.4 NNE 3 5 1008.3 - 0.0 - - 10 - - - -
18/12:30am 26.5 ESE 6 7 1008.4 - 0.0 - - 10 - - - -
18/12:00am 26.3 ESE 5 6 1008.7 - 0.0 - Cloudy 10 - - - -
 
Date/Time
CST
Temp
°C
Wind Pressure Rain since
9am
mm
Weather Cloud Vis
km
Sea
Height
m
Swell
Dir  Spd
kts
Gust
kts
hPa Trend Height
m
Period
s
Dir
17/11:30pm 26.3 ESE 4 5 1009.3 - 0.0 - - 10 - - - -
17/11:00pm 26.8 E 5 7 1009.4 - 0.0 - - 10 - - - -
17/10:30pm 26.2 ESE 4 5 1009.1 - 0.0 - - 10 - - - -
17/10:00pm 26.7 ENE 4 6 1008.8 - 0.0 - - 10 - - - -
17/09:30pm 26.6 E 5 6 1008.7 - 0.0 - - 10 - - - -
17/09:00pm 26.9 ENE 5 6 1008.5 - 0.0 - - 10 - - - -
17/08:30pm 27.0 ENE 4 5 1008.3 - 0.0 - - 10 - - - -
17/08:00pm 27.3 ENE 5 8 1007.7 - 0.0 - - 10 - - - -
17/07:30pm 27.6 ENE 6 8 1007.4 - 0.0 - - 10 - - - -
17/07:00pm 27.8 ENE 9 13 1006.7 - 0.0 - - 10 - - - -
17/06:30pm 28.3 E 12 16 1006.0 - 0.0 - - 10 - - - -
17/06:00pm 29.2 E 12 16 1005.8 - 0.0 - - 10 - - - -
17/05:30pm 30.4 ENE 11 17 1005.6 - 0.0 - - 10 - - - -
17/05:00pm 30.9 E 11 15 1005.3 - 0.0 - - 10 - - - -
17/04:30pm 31.1 E 12 16 1005.2 - 0.0 - - 10 - - - -
17/04:00pm 32.3 E 11 17 1005.2 - 0.0 - - 10 - - - -
17/03:30pm 31.8 E 10 15 1005.4 - 0.0 - - 10 - - - -
17/03:00pm 31.7 ENE 11 13 1005.7 - 0.0 - - 10 - - - -
17/02:30pm 31.3 ESE 9 12 1005.9 - 0.0 - - 10 - - - -
17/02:00pm 31.7 E 11 16 1006.2 - 0.0 - - 10 - - - -
17/01:30pm 29.2 E 14 20 1007.0 - 0.0 - Partly cloudy 10 - - - -
17/01:00pm 30.4 ESE 11 16 1007.5 - 0.0 - Partly cloudy 10 - - - -
17/12:30pm 28.4 SE 11 21 1007.7 - 0.0 - Partly cloudy 10 - - - -
17/12:24pm 28.9 N 9 21 1007.8 - 0.0 - Partly cloudy 10 - - - -
17/12:00pm 34.5 NW 13 18 1007.4 - 0.0 - - 10 - - - -
17/11:30am 33.1 NNW 10 16 1008.2 - 0.0 - - 10 - - - -
17/11:00am 32.8 NNW 7 12 1008.7 - 0.0 - - 10 - - - -
17/10:30am 32.2 NNW 7 11 1009.1 - 0.0 - Partly cloudy 10 - - - -
17/10:00am 32.1 NNE 7 11 1009.2 - 0.0 - Partly cloudy 10 - - - -
17/09:30am 31.2 N 6 11 1009.3 - 0.0 - Partly cloudy 10 - - - -
17/09:00am 30.3 NNE 8 11 1009.3 - 0.0 - Mostly clear 10 - - - -
17/08:30am 29.7 N 8 13 1009.0 - 0.0 - Partly cloudy 10 - - - -
17/08:00am 29.0 NNW 8 11 1008.9 - 0.0 - Partly cloudy 10 - - - -
17/07:30am 28.3 NNE 5 6 1008.6 - 0.0 - Partly cloudy 10 - - - -
17/07:00am 27.0 E 5 6 1008.2 - 0.0 - - 10 - - - -
17/06:30am 25.2 CALM 0 0 1007.8 - 0.0 - - 10 - - - -
17/06:00am 25.4 CALM 0 0 1007.3 - 0.0 - Mostly cloudy 10 - - - -
17/05:30am 25.7 ENE 1 3 1006.8 - 0.0 - - 10 - - - -
17/05:00am 26.6 NNE 5 7 1006.0 - 0.0 - - 10 - - - -
17/04:30am 26.8 N 6 8 1005.9 - 0.0 - - 10 - - - -
17/04:00am 25.6 NE 5 7 1006.2 - 0.0 - Partly cloudy 10 - - - -
17/03:30am 24.9 ESE 4 5 1007.0 - 0.0 - Partly cloudy 10 - - - -
17/03:00am 24.8 SE 2 4 1006.8 - 0.0 - Partly cloudy 10 - - - -
17/02:30am 25.6 ENE 1 4 1006.7 - 0.0 - - 10 - - - -
17/02:00am 25.4 ESE 4 5 1007.4 - 0.0 - - 10 - - - -
17/01:30am 25.7 ENE 1 4 1007.6 - 0.0 - - 10 - - - -
17/01:00am 26.6 NE 2 4 1007.7 - 0.0 - - 10 - - - -
17/12:30am 27.2 NNE 4 5 1007.9 - 0.0 - - 10 - - - -
17/12:00am 27.7 N 1 4 1008.4 - 0.0 - Mostly clear 10 - - - -
 
Date/Time
CST
Temp
°C
Wind Pressure Rain since
9am
mm
Weather Cloud Vis
km
Sea
Height
m
Swell
Dir  Spd
kts
Gust
kts
hPa Trend Height
m
Period
s
Dir
16/11:30pm 28.0 NNE 5 7 1008.1 - 0.0 - - 10 - - - -
16/11:00pm 28.2 NNE 6 9 1008.3 - 0.0 - Partly cloudy 10 - - - -
16/10:30pm 28.2 NE 6 10 1008.3 - 0.0 - Partly cloudy 10 - - - -
16/10:00pm 28.3 NE 8 13 1007.7 - 0.0 - Partly cloudy 10 - - - -
16/09:30pm 28.4 NE 8 13 1007.3 - 0.0 - - 10 - - - -
16/09:00pm 28.4 NE 8 12 1006.9 - 0.0 Showers Mostly clear 10 - - - -
16/08:30pm 28.5 ENE 7 10 1006.7 - 0.0 - - 10 - - - -
16/08:00pm 28.6 NE 9 11 1006.0 - 0.0 - - 10 - - - -
16/07:30pm 28.8 NE 7 11 1005.8 - 0.0 - - 10 - - - -
16/07:00pm 28.9 ENE 9 11 1005.6 - 0.0 - - 10 - - - -
16/06:30pm 29.3 NE 11 16 1005.1 - 0.0 - - 10 - - - -
16/06:00pm 29.9 NE 10 14 1004.6 - 0.0 - - 10 - - - -
16/05:30pm 30.4 NE 14 20 1004.3 - 0.0 - - 10 - - - -
16/05:00pm 31.0 NNE 12 20 1004.5 - 0.0 - Partly cloudy 10 - - - -
16/04:36pm 31.6 NNE 13 22 1003.6 - 0.0 - - 10 - - - -
16/04:30pm 31.7 NE 12 18 1003.6 - 0.0 - - 10 - - - -
16/04:17pm 32.9 NE 11 16 1003.3 - 0.0 - - 1 - - - -
16/04:00pm 33.1 NNE 12 19 1003.2 - 0.0 - Partly cloudy 10 - - - -
16/03:30pm 33.9 NE 9 13 1003.4 - 0.0 - Partly cloudy 10 - - - -
16/03:00pm 33.7 ENE 10 16 1003.8 - 0.0 - - 10 - - - -
16/02:30pm 32.6 ENE 10 17 1004.3 - 0.0 - Partly cloudy 10 - - - -
16/02:00pm 33.7 NNE 8 12 1004.1 - 0.0 - Partly cloudy 10 - - - -
16/01:30pm 34.1 NNW 7 15 1004.4 - 0.0 - Partly cloudy 10 - - - -
16/01:00pm 33.4 NNE 8 15 1005.3 - 0.0 - Partly cloudy 10 - - - -
16/12:30pm 33.8 NNW 8 14 1006.0 - 0.0 - Partly cloudy 10 - - - -
16/12:00pm 34.2 WNW 9 13 1006.5 - 0.0 - Mostly clear 10 - - - -
16/11:30am 32.5 NE 6 12 1007.2 - 0.0 - Partly cloudy 10 - - - -
16/11:00am 32.9 N 5 8 1007.7 - 0.0 - Partly cloudy 10 - - - -
16/10:30am 32.8 NNW 4 6 1008.1 - 0.0 - Partly cloudy 10 - - - -
16/10:00am 32.0 NE 4 6 1008.6 - 0.0 - Partly cloudy 10 - - - -
16/09:30am 31.8 E 4 8 1008.8 - 0.0 - - - - - - -
16/09:00am 30.6 ESE 5 8 1009.2 - 0.0 - Partly cloudy 10 - - - -
16/08:30am 30.1 ENE 4 5 1009.2 - 0.0 - Partly cloudy 10 - - - -
16/08:00am 29.2 NW 8 11 1008.3 - 0.0 - - 10 - - - -
16/07:30am 29.0 NW 7 10 1007.7 - 0.0 - - - - - - -
16/07:00am 28.4 NW 6 8 1007.5 - 0.0 - - - - - - -
16/06:30am 27.8 NW 5 7 1007.3 - 0.0 - - - - - - -
16/06:00am 27.7 NW 6 9 1007.2 - 0.0 - - - - - - -
16/05:30am 28.0 NW 7 11 1006.9 - 0.0 - Partly cloudy - - - - -
16/05:00am 28.0 NW 8 10 1006.6 - 0.0 - Partly cloudy - - - - -
16/04:30am 27.8 NNW 7 9 1006.5 - 0.0 - Cloudy - - - - -
16/04:00am 27.6 NNW 7 11 1006.3 - 0.0 - Partly cloudy - - - - -
16/03:30am 27.8 NNW 10 15 1006.1 - 0.0 - - - - - - -
16/03:00am 27.3 N 5 7 1005.9 - 0.0 - Mostly clear - - - - -
16/02:30am 27.5 N 7 9 1005.8 - 0.0 - - - - - - -
16/02:00am 27.5 N 8 11 1005.9 - 0.0 - Partly cloudy 10 - - - -
16/01:30am 27.5 N 7 10 1006.0 - 0.0 - - 10 - - - -
16/01:00am 27.4 N 8 13 1006.2 - 0.0 - - 10 - - - -
16/12:30am 27.5 N 6 9 1006.4 - 0.0 - Partly cloudy 10 - - - -
16/12:00am 27.7 N 7 11 1006.5 - 0.0 - - 10 - - - -
 
Date/Time
CST
Temp
°C
Wind Pressure Rain since
9am
mm
Weather Cloud Vis
km
Sea
Height
m
Swell
Dir  Spd
kts
Gust
kts
hPa Trend Height
m
Period
s
Dir
15/11:30pm 27.7 N 7 11 1006.7 - 0.0 - - 10 - - - -
15/11:00pm 27.9 N 7 11 1006.5 - 0.0 - - 10 - - - -
15/10:30pm 27.9 NNE 7 11 1006.4 - 0.0 - - 10 - - - -
15/10:00pm 27.4 NE 5 8 1006.1 - 0.0 - - 10 - - - -
15/09:30pm 27.6 NE 6 9 1005.7 - 0.0 - - 10 - - - -
15/09:00pm 27.8 NE 7 13 1005.5 - 0.0 - - 10 - - - -
15/08:30pm 27.9 NE 7 12 1005.6 - 0.0 - - 10 - - - -
15/08:00pm 28.3 NE 7 11 1005.2 - 0.0 - - 10 - - - -
15/07:30pm 29.2 NE 7 9 1005.1 - 0.0 - - 10 - - - -
15/07:00pm 30.0 ENE 6 7 1004.8 - 0.0 - - 10 - - - -
15/06:30pm 30.7 NE 6 8 1004.6 - 0.0 - - 10 - - - -
15/06:00pm 31.6 NE 7 10 1004.3 - 0.0 - - 10 - - - -
15/05:30pm 32.3 NNW 6 8 1004.3 - 0.0 - - 10 - - - -
15/05:00pm 32.4 NW 7 10 1004.4 - 0.0 - - 10 - - - -
15/04:30pm 32.8 WNW 8 11 1004.3 - 0.0 - - 10 - - - -
15/04:00pm 32.9 NW 8 13 1004.3 - 0.0 - - 10 - - - -
15/03:30pm 32.3 WNW 7 12 1004.5 - 0.0 - Partly cloudy 10 - - - -

Other Formats:

Comma delimited format used in spreadsheet applications
http://www.bom.gov.au/fwo/IDD60701/IDD60701.94153.axf

JavaScript Object Notation format (JSON) in row-major order
http://www.bom.gov.au/fwo/IDD60701/IDD60701.94153.json